sensor_id;sensor_type;location;lat;lon;timestamp;P1;durP1;ratioP1;P2;durP2;ratioP2
20144;SDS011;10233;50.814;6.590;2023-04-06T00:00:00;11.88;;;5.60;;
20144;SDS011;10233;50.814;6.590;2023-04-06T00:01:00;11.32;;;5.50;;
20144;SDS011;10233;50.814;6.590;2023-04-06T00:02:01;12.57;;;6.17;;
20144;SDS011;10233;50.814;6.590;2023-04-06T00:03:02;12.67;;;6.20;;
20144;SDS011;10233;50.814;6.590;2023-04-06T00:04:03;12.77;;;5.90;;
20144;SDS011;10233;50.814;6.590;2023-04-06T00:05:05;13.80;;;6.60;;
20144;SDS011;10233;50.814;6.590;2023-04-06T00:06:06;12.23;;;6.53;;
20144;SDS011;10233;50.814;6.590;2023-04-06T00:07:07;12.50;;;6.30;;
20144;SDS011;10233;50.814;6.590;2023-04-06T00:08:08;13.35;;;6.43;;
20144;SDS011;10233;50.814;6.590;2023-04-06T00:09:08;13.93;;;6.47;;
20144;SDS011;10233;50.814;6.590;2023-04-06T00:10:09;14.07;;;6.87;;
20144;SDS011;10233;50.814;6.590;2023-04-06T00:11:10;14.95;;;6.75;;
20144;SDS011;10233;50.814;6.590;2023-04-06T00:12:11;12.23;;;6.35;;
20144;SDS011;10233;50.814;6.590;2023-04-06T00:13:11;13.35;;;6.20;;
20144;SDS011;10233;50.814;6.590;2023-04-06T00:14:12;12.63;;;6.22;;
20144;SDS011;10233;50.814;6.590;2023-04-06T00:15:13;12.20;;;5.95;;
20144;SDS011;10233;50.814;6.590;2023-04-06T00:16:17;13.13;;;6.47;;
20144;SDS011;10233;50.814;6.590;2023-04-06T00:17:18;12.80;;;6.35;;
20144;SDS011;10233;50.814;6.590;2023-04-06T00:18:18;11.25;;;6.07;;
20144;SDS011;10233;50.814;6.590;2023-04-06T00:19:19;12.40;;;6.30;;
20144;SDS011;10233;50.814;6.590;2023-04-06T00:20:20;14.67;;;6.07;;
20144;SDS011;10233;50.814;6.590;2023-04-06T00:21:21;12.40;;;6.25;;
20144;SDS011;10233;50.814;6.590;2023-04-06T00:22:21;11.98;;;6.15;;
20144;SDS011;10233;50.814;6.590;2023-04-06T00:23:22;13.75;;;6.57;;
20144;SDS011;10233;50.814;6.590;2023-04-06T00:24:23;12.43;;;6.30;;
20144;SDS011;10233;50.814;6.590;2023-04-06T00:25:23;14.93;;;6.13;;
20144;SDS011;10233;50.814;6.590;2023-04-06T00:26:24;12.65;;;6.50;;
20144;SDS011;10233;50.814;6.590;2023-04-06T00:27:25;14.48;;;6.78;;
20144;SDS011;10233;50.814;6.590;2023-04-06T00:28:25;11.67;;;6.40;;
20144;SDS011;10233;50.814;6.590;2023-04-06T00:29:26;12.03;;;6.40;;
20144;SDS011;10233;50.814;6.590;2023-04-06T00:30:27;13.20;;;6.33;;
20144;SDS011;10233;50.814;6.590;2023-04-06T00:31:27;12.55;;;6.38;;
20144;SDS011;10233;50.814;6.590;2023-04-06T00:32:28;12.63;;;6.25;;
20144;SDS011;10233;50.814;6.590;2023-04-06T00:33:29;13.50;;;6.40;;
20144;SDS011;10233;50.814;6.590;2023-04-06T00:34:29;11.87;;;5.67;;
20144;SDS011;10233;50.814;6.590;2023-04-06T00:35:30;13.13;;;6.50;;
20144;SDS011;10233;50.814;6.590;2023-04-06T00:36:31;10.68;;;5.82;;
20144;SDS011;10233;50.814;6.590;2023-04-06T00:37:31;12.80;;;6.00;;
20144;SDS011;10233;50.814;6.590;2023-04-06T00:38:32;12.87;;;6.20;;
20144;SDS011;10233;50.814;6.590;2023-04-06T00:39:34;12.73;;;6.27;;
20144;SDS011;10233;50.814;6.590;2023-04-06T00:40:35;11.68;;;5.82;;
20144;SDS011;10233;50.814;6.590;2023-04-06T00:41:36;12.27;;;6.07;;
20144;SDS011;10233;50.814;6.590;2023-04-06T00:42:36;12.20;;;6.00;;
20144;SDS011;10233;50.814;6.590;2023-04-06T00:43:37;12.77;;;6.43;;
20144;SDS011;10233;50.814;6.590;2023-04-06T00:44:38;10.35;;;5.60;;
20144;SDS011;10233;50.814;6.590;2023-04-06T00:45:40;11.15;;;6.28;;
20144;SDS011;10233;50.814;6.590;2023-04-06T00:46:41;13.65;;;6.45;;
20144;SDS011;10233;50.814;6.590;2023-04-06T00:47:42;12.65;;;6.05;;
20144;SDS011;10233;50.814;6.590;2023-04-06T00:48:43;12.77;;;6.35;;
20144;SDS011;10233;50.814;6.590;2023-04-06T00:49:44;12.35;;;6.25;;
20144;SDS011;10233;50.814;6.590;2023-04-06T00:50:45;15.67;;;6.33;;
20144;SDS011;10233;50.814;6.590;2023-04-06T00:51:45;12.30;;;6.17;;
20144;SDS011;10233;50.814;6.590;2023-04-06T00:52:48;10.02;;;5.47;;
20144;SDS011;10233;50.814;6.590;2023-04-06T00:53:49;9.35;;;5.13;;
20144;SDS011;10233;50.814;6.590;2023-04-06T00:54:50;10.32;;;5.28;;
20144;SDS011;10233;50.814;6.590;2023-04-06T00:55:53;11.50;;;6.20;;
20144;SDS011;10233;50.814;6.590;2023-04-06T00:56:55;12.25;;;6.18;;
20144;SDS011;10233;50.814;6.590;2023-04-06T00:57:57;11.50;;;5.35;;
20144;SDS011;10233;50.814;6.590;2023-04-06T00:59:00;12.63;;;5.68;;
20144;SDS011;10233;50.814;6.590;2023-04-06T01:00:01;11.00;;;5.85;;
20144;SDS011;10233;50.814;6.590;2023-04-06T01:01:03;11.88;;;5.88;;
20144;SDS011;10233;50.814;6.590;2023-04-06T01:02:04;11.05;;;5.93;;
20144;SDS011;10233;50.814;6.590;2023-04-06T01:03:11;12.80;;;6.13;;
20144;SDS011;10233;50.814;6.590;2023-04-06T01:04:15;13.63;;;6.65;;
20144;SDS011;10233;50.814;6.590;2023-04-06T01:05:16;16.42;;;6.22;;
20144;SDS011;10233;50.814;6.590;2023-04-06T01:06:23;11.50;;;5.63;;
20144;SDS011;10233;50.814;6.590;2023-04-06T01:07:34;12.85;;;6.05;;
20144;SDS011;10233;50.814;6.590;2023-04-06T01:08:48;11.13;;;5.63;;
20144;SDS011;10233;50.814;6.590;2023-04-06T01:09:53;12.83;;;6.83;;
20144;SDS011;10233;50.814;6.590;2023-04-06T01:10:59;12.13;;;6.40;;
20144;SDS011;10233;50.814;6.590;2023-04-06T01:12:03;13.75;;;6.65;;
20144;SDS011;10233;50.814;6.590;2023-04-06T01:13:05;14.00;;;6.20;;
20144;SDS011;10233;50.814;6.590;2023-04-06T01:14:33;18.50;;;8.07;;
20144;SDS011;10233;50.814;6.590;2023-04-06T01:15:34;17.73;;;8.20;;
20144;SDS011;10233;50.814;6.590;2023-04-06T01:16:40;17.90;;;8.80;;
20144;SDS011;10233;50.814;6.590;2023-04-06T01:17:48;22.20;;;10.02;;
20144;SDS011;10233;50.814;6.590;2023-04-06T01:18:50;20.20;;;9.65;;
20144;SDS011;10233;50.814;6.590;2023-04-06T01:19:55;22.08;;;9.55;;
20144;SDS011;10233;50.814;6.590;2023-04-06T01:21:01;23.08;;;10.32;;
20144;SDS011;10233;50.814;6.590;2023-04-06T01:22:03;22.80;;;10.23;;
20144;SDS011;10233;50.814;6.590;2023-04-06T01:23:03;21.90;;;10.50;;
20144;SDS011;10233;50.814;6.590;2023-04-06T01:24:05;22.48;;;10.35;;
20144;SDS011;10233;50.814;6.590;2023-04-06T01:25:20;23.75;;;10.57;;
20144;SDS011;10233;50.814;6.590;2023-04-06T01:26:36;24.40;;;10.50;;
20144;SDS011;10233;50.814;6.590;2023-04-06T01:27:41;22.27;;;10.60;;
20144;SDS011;10233;50.814;6.590;2023-04-06T01:28:45;23.38;;;10.90;;
20144;SDS011;10233;50.814;6.590;2023-04-06T01:30:06;21.98;;;10.45;;
20144;SDS011;10233;50.814;6.590;2023-04-06T01:31:36;24.27;;;10.77;;
20144;SDS011;10233;50.814;6.590;2023-04-06T01:32:38;22.27;;;11.20;;
20144;SDS011;10233;50.814;6.590;2023-04-06T01:33:40;28.98;;;12.57;;
20144;SDS011;10233;50.814;6.590;2023-04-06T01:34:44;30.67;;;13.68;;
20144;SDS011;10233;50.814;6.590;2023-04-06T01:35:45;25.27;;;12.55;;
20144;SDS011;10233;50.814;6.590;2023-04-06T01:36:49;30.05;;;13.15;;
20144;SDS011;10233;50.814;6.590;2023-04-06T01:38:02;30.38;;;12.75;;
20144;SDS011;10233;50.814;6.590;2023-04-06T01:39:07;25.50;;;12.98;;
20144;SDS011;10233;50.814;6.590;2023-04-06T01:40:10;24.90;;;11.88;;
20144;SDS011;10233;50.814;6.590;2023-04-06T01:41:18;32.88;;;14.25;;
20144;SDS011;10233;50.814;6.590;2023-04-06T01:42:23;28.92;;;14.98;;
20144;SDS011;10233;50.814;6.590;2023-04-06T01:43:24;25.17;;;14.05;;
20144;SDS011;10233;50.814;6.590;2023-04-06T01:44:44;29.75;;;14.48;;
20144;SDS011;10233;50.814;6.590;2023-04-06T01:45:48;29.15;;;15.05;;
20144;SDS011;10233;50.814;6.590;2023-04-06T01:46:53;33.65;;;15.73;;
20144;SDS011;10233;50.814;6.590;2023-04-06T01:47:54;29.23;;;15.75;;
20144;SDS011;10233;50.814;6.590;2023-04-06T01:48:58;33.70;;;17.08;;
20144;SDS011;10233;50.814;6.590;2023-04-06T01:50:07;38.40;;;18.57;;
20144;SDS011;10233;50.814;6.590;2023-04-06T01:51:13;34.40;;;17.77;;
20144;SDS011;10233;50.814;6.590;2023-04-06T01:52:22;30.80;;;15.85;;
20144;SDS011;10233;50.814;6.590;2023-04-06T01:53:26;29.75;;;16.80;;
20144;SDS011;10233;50.814;6.590;2023-04-06T01:54:33;34.88;;;16.60;;
20144;SDS011;10233;50.814;6.590;2023-04-06T01:55:40;31.15;;;16.65;;
20144;SDS011;10233;50.814;6.590;2023-04-06T01:56:51;31.95;;;15.48;;
20144;SDS011;10233;50.814;6.590;2023-04-06T01:58:04;31.20;;;15.23;;
20144;SDS011;10233;50.814;6.590;2023-04-06T01:59:10;31.80;;;15.82;;
20144;SDS011;10233;50.814;6.590;2023-04-06T02:00:15;29.50;;;15.75;;
20144;SDS011;10233;50.814;6.590;2023-04-06T02:01:21;29.95;;;16.17;;
20144;SDS011;10233;50.814;6.590;2023-04-06T02:02:28;34.33;;;17.77;;
20144;SDS011;10233;50.814;6.590;2023-04-06T02:03:35;38.38;;;19.77;;
20144;SDS011;10233;50.814;6.590;2023-04-06T02:04:41;37.47;;;20.50;;
20144;SDS011;10233;50.814;6.590;2023-04-06T02:05:45;40.20;;;22.27;;
20144;SDS011;10233;50.814;6.590;2023-04-06T02:06:56;44.33;;;23.10;;
20144;SDS011;10233;50.814;6.590;2023-04-06T02:07:59;38.55;;;23.02;;
20144;SDS011;10233;50.814;6.590;2023-04-06T02:09:07;43.17;;;24.42;;
20144;SDS011;10233;50.814;6.590;2023-04-06T02:10:11;42.35;;;24.25;;
20144;SDS011;10233;50.814;6.590;2023-04-06T02:11:13;44.80;;;23.58;;
20144;SDS011;10233;50.814;6.590;2023-04-06T02:12:19;39.75;;;23.30;;
20144;SDS011;10233;50.814;6.590;2023-04-06T02:13:20;40.92;;;24.17;;
20144;SDS011;10233;50.814;6.590;2023-04-06T02:14:25;38.85;;;23.35;;
20144;SDS011;10233;50.814;6.590;2023-04-06T02:15:28;41.85;;;24.10;;
20144;SDS011;10233;50.814;6.590;2023-04-06T02:16:29;36.33;;;22.15;;
20144;SDS011;10233;50.814;6.590;2023-04-06T02:17:30;34.58;;;21.05;;
20144;SDS011;10233;50.814;6.590;2023-04-06T02:18:31;35.83;;;20.83;;
20144;SDS011;10233;50.814;6.590;2023-04-06T02:19:31;35.07;;;21.23;;
20144;SDS011;10233;50.814;6.590;2023-04-06T02:20:32;32.80;;;19.60;;
20144;SDS011;10233;50.814;6.590;2023-04-06T02:21:32;34.17;;;19.25;;
20144;SDS011;10233;50.814;6.590;2023-04-06T02:22:34;32.30;;;19.00;;
20144;SDS011;10233;50.814;6.590;2023-04-06T02:23:35;28.10;;;17.73;;
20144;SDS011;10233;50.814;6.590;2023-04-06T02:24:36;31.52;;;17.92;;
20144;SDS011;10233;50.814;6.590;2023-04-06T02:25:39;32.78;;;18.95;;
20144;SDS011;10233;50.814;6.590;2023-04-06T02:26:40;34.30;;;17.13;;
20144;SDS011;10233;50.814;6.590;2023-04-06T02:27:41;33.57;;;18.17;;
20144;SDS011;10233;50.814;6.590;2023-04-06T02:28:42;30.23;;;18.10;;
20144;SDS011;10233;50.814;6.590;2023-04-06T02:29:42;28.57;;;17.07;;
20144;SDS011;10233;50.814;6.590;2023-04-06T02:30:43;31.53;;;17.27;;
20144;SDS011;10233;50.814;6.590;2023-04-06T02:31:44;29.23;;;16.58;;
20144;SDS011;10233;50.814;6.590;2023-04-06T02:32:48;29.02;;;16.08;;
20144;SDS011;10233;50.814;6.590;2023-04-06T02:33:49;26.42;;;14.65;;
20144;SDS011;10233;50.814;6.590;2023-04-06T02:34:51;27.33;;;15.17;;
20144;SDS011;10233;50.814;6.590;2023-04-06T02:35:54;25.73;;;13.00;;
20144;SDS011;10233;50.814;6.590;2023-04-06T02:36:54;26.23;;;13.40;;
20144;SDS011;10233;50.814;6.590;2023-04-06T02:37:55;23.47;;;12.37;;
20144;SDS011;10233;50.814;6.590;2023-04-06T02:38:56;21.63;;;12.27;;
20144;SDS011;10233;50.814;6.590;2023-04-06T02:39:57;19.48;;;10.52;;
20144;SDS011;10233;50.814;6.590;2023-04-06T02:40:57;19.65;;;11.23;;
20144;SDS011;10233;50.814;6.590;2023-04-06T02:42:00;17.08;;;10.80;;
20144;SDS011;10233;50.814;6.590;2023-04-06T02:43:01;17.67;;;9.80;;
20144;SDS011;10233;50.814;6.590;2023-04-06T02:44:08;18.35;;;9.48;;
20144;SDS011;10233;50.814;6.590;2023-04-06T02:45:16;17.80;;;9.60;;
20144;SDS011;10233;50.814;6.590;2023-04-06T02:46:20;19.50;;;9.93;;
20144;SDS011;10233;50.814;6.590;2023-04-06T02:47:21;16.13;;;9.35;;
20144;SDS011;10233;50.814;6.590;2023-04-06T02:48:24;15.77;;;8.95;;
20144;SDS011;10233;50.814;6.590;2023-04-06T02:49:26;16.88;;;9.00;;
20144;SDS011;10233;50.814;6.590;2023-04-06T02:50:30;16.73;;;8.70;;
20144;SDS011;10233;50.814;6.590;2023-04-06T02:51:35;18.02;;;8.50;;
20144;SDS011;10233;50.814;6.590;2023-04-06T02:52:54;14.52;;;8.35;;
20144;SDS011;10233;50.814;6.590;2023-04-06T02:53:55;14.13;;;7.60;;
20144;SDS011;10233;50.814;6.590;2023-04-06T02:54:56;16.67;;;7.67;;
20144;SDS011;10233;50.814;6.590;2023-04-06T02:56:01;13.00;;;7.28;;
20144;SDS011;10233;50.814;6.590;2023-04-06T02:57:11;16.20;;;7.40;;
20144;SDS011;10233;50.814;6.590;2023-04-06T02:58:16;13.05;;;7.20;;
20144;SDS011;10233;50.814;6.590;2023-04-06T02:59:20;14.13;;;7.00;;
20144;SDS011;10233;50.814;6.590;2023-04-06T03:00:32;11.75;;;6.32;;
20144;SDS011;10233;50.814;6.590;2023-04-06T03:01:33;13.77;;;6.60;;
20144;SDS011;10233;50.814;6.590;2023-04-06T03:02:37;12.43;;;6.75;;
20144;SDS011;10233;50.814;6.590;2023-04-06T03:03:43;14.45;;;6.68;;
20144;SDS011;10233;50.814;6.590;2023-04-06T03:04:50;15.45;;;6.90;;
20144;SDS011;10233;50.814;6.590;2023-04-06T03:06:00;16.80;;;6.25;;
20144;SDS011;10233;50.814;6.590;2023-04-06T03:07:04;13.38;;;6.20;;
20144;SDS011;10233;50.814;6.590;2023-04-06T03:08:09;12.10;;;6.10;;
20144;SDS011;10233;50.814;6.590;2023-04-06T03:09:16;12.90;;;6.47;;
20144;SDS011;10233;50.814;6.590;2023-04-06T03:10:18;13.02;;;6.50;;
20144;SDS011;10233;50.814;6.590;2023-04-06T03:11:21;12.45;;;6.00;;
20144;SDS011;10233;50.814;6.590;2023-04-06T03:12:24;13.48;;;6.68;;
20144;SDS011;10233;50.814;6.590;2023-04-06T03:13:51;16.60;;;6.90;;
20144;SDS011;10233;50.814;6.590;2023-04-06T03:14:52;14.63;;;6.63;;
20144;SDS011;10233;50.814;6.590;2023-04-06T03:15:54;14.45;;;6.70;;
20144;SDS011;10233;50.814;6.590;2023-04-06T03:16:55;12.88;;;6.32;;
20144;SDS011;10233;50.814;6.590;2023-04-06T03:17:58;12.70;;;6.22;;
20144;SDS011;10233;50.814;6.590;2023-04-06T03:19:13;12.68;;;6.35;;
20144;SDS011;10233;50.814;6.590;2023-04-06T03:20:14;13.98;;;6.47;;
20144;SDS011;10233;50.814;6.590;2023-04-06T03:21:15;14.00;;;6.40;;
20144;SDS011;10233;50.814;6.590;2023-04-06T03:22:21;14.07;;;6.77;;
20144;SDS011;10233;50.814;6.590;2023-04-06T03:23:22;12.68;;;5.95;;
20144;SDS011;10233;50.814;6.590;2023-04-06T03:24:27;11.90;;;6.15;;
20144;SDS011;10233;50.814;6.590;2023-04-06T03:25:28;11.73;;;6.32;;
20144;SDS011;10233;50.814;6.590;2023-04-06T03:26:34;12.10;;;6.20;;
20144;SDS011;10233;50.814;6.590;2023-04-06T03:27:39;12.23;;;6.10;;
20144;SDS011;10233;50.814;6.590;2023-04-06T03:28:43;14.73;;;6.35;;
20144;SDS011;10233;50.814;6.590;2023-04-06T03:29:44;12.68;;;6.30;;
20144;SDS011;10233;50.814;6.590;2023-04-06T03:30:49;13.15;;;6.10;;
20144;SDS011;10233;50.814;6.590;2023-04-06T03:31:55;13.90;;;6.70;;
20144;SDS011;10233;50.814;6.590;2023-04-06T03:33:06;11.18;;;5.97;;
20144;SDS011;10233;50.814;6.590;2023-04-06T03:34:14;13.88;;;6.80;;
20144;SDS011;10233;50.814;6.590;2023-04-06T03:35:15;11.93;;;6.20;;
20144;SDS011;10233;50.814;6.590;2023-04-06T03:36:16;11.85;;;5.85;;
20144;SDS011;10233;50.814;6.590;2023-04-06T03:37:17;12.73;;;6.07;;
20144;SDS011;10233;50.814;6.590;2023-04-06T03:38:24;11.75;;;6.20;;
20144;SDS011;10233;50.814;6.590;2023-04-06T03:39:25;13.23;;;6.20;;
20144;SDS011;10233;50.814;6.590;2023-04-06T03:40:26;12.88;;;5.90;;
20144;SDS011;10233;50.814;6.590;2023-04-06T03:41:27;11.13;;;5.80;;
20144;SDS011;10233;50.814;6.590;2023-04-06T03:42:36;12.48;;;6.38;;
20144;SDS011;10233;50.814;6.590;2023-04-06T03:43:43;11.18;;;5.82;;
20144;SDS011;10233;50.814;6.590;2023-04-06T03:44:45;14.45;;;6.22;;
20144;SDS011;10233;50.814;6.590;2023-04-06T03:45:45;11.57;;;5.63;;
20144;SDS011;10233;50.814;6.590;2023-04-06T03:46:48;12.23;;;5.68;;
20144;SDS011;10233;50.814;6.590;2023-04-06T03:47:49;11.25;;;5.40;;
20144;SDS011;10233;50.814;6.590;2023-04-06T03:48:50;12.07;;;5.72;;
20144;SDS011;10233;50.814;6.590;2023-04-06T03:49:53;10.98;;;5.70;;
20144;SDS011;10233;50.814;6.590;2023-04-06T03:50:54;13.65;;;6.40;;
20144;SDS011;10233;50.814;6.590;2023-04-06T03:51:56;13.50;;;5.90;;
20144;SDS011;10233;50.814;6.590;2023-04-06T03:52:56;11.57;;;5.80;;
20144;SDS011;10233;50.814;6.590;2023-04-06T03:53:57;14.23;;;6.50;;
20144;SDS011;10233;50.814;6.590;2023-04-06T03:54:58;13.10;;;6.13;;
20144;SDS011;10233;50.814;6.590;2023-04-06T03:55:59;14.02;;;6.30;;
20144;SDS011;10233;50.814;6.590;2023-04-06T03:57:04;12.05;;;6.00;;
20144;SDS011;10233;50.814;6.590;2023-04-06T03:58:05;12.90;;;6.00;;
20144;SDS011;10233;50.814;6.590;2023-04-06T03:59:05;16.60;;;6.68;;
20144;SDS011;10233;50.814;6.590;2023-04-06T04:00:06;13.10;;;6.70;;
20144;SDS011;10233;50.814;6.590;2023-04-06T04:01:16;15.18;;;6.85;;
20144;SDS011;10233;50.814;6.590;2023-04-06T04:02:20;13.23;;;6.38;;
20144;SDS011;10233;50.814;6.590;2023-04-06T04:03:21;14.53;;;6.40;;
20144;SDS011;10233;50.814;6.590;2023-04-06T04:04:23;14.73;;;6.40;;
20144;SDS011;10233;50.814;6.590;2023-04-06T04:05:25;12.60;;;6.53;;
20144;SDS011;10233;50.814;6.590;2023-04-06T04:06:26;15.25;;;6.25;;
20144;SDS011;10233;50.814;6.590;2023-04-06T04:07:27;14.50;;;6.72;;
20144;SDS011;10233;50.814;6.590;2023-04-06T04:08:28;15.32;;;6.68;;
20144;SDS011;10233;50.814;6.590;2023-04-06T04:09:28;13.80;;;6.47;;
20144;SDS011;10233;50.814;6.590;2023-04-06T04:10:29;13.87;;;6.90;;
20144;SDS011;10233;50.814;6.590;2023-04-06T04:11:30;13.87;;;6.70;;
20144;SDS011;10233;50.814;6.590;2023-04-06T04:12:33;11.82;;;6.18;;
20144;SDS011;10233;50.814;6.590;2023-04-06T04:13:33;16.20;;;6.33;;
20144;SDS011;10233;50.814;6.590;2023-04-06T04:14:37;14.23;;;6.60;;
20144;SDS011;10233;50.814;6.590;2023-04-06T04:15:38;15.90;;;6.82;;
20144;SDS011;10233;50.814;6.590;2023-04-06T04:16:38;15.93;;;6.60;;
20144;SDS011;10233;50.814;6.590;2023-04-06T04:17:39;14.25;;;6.07;;
20144;SDS011;10233;50.814;6.590;2023-04-06T04:18:40;15.20;;;6.83;;
20144;SDS011;10233;50.814;6.590;2023-04-06T04:19:40;14.65;;;7.07;;
20144;SDS011;10233;50.814;6.590;2023-04-06T04:20:44;11.23;;;5.90;;
20144;SDS011;10233;50.814;6.590;2023-04-06T04:21:46;12.23;;;6.05;;
20144;SDS011;10233;50.814;6.590;2023-04-06T04:22:51;13.63;;;5.88;;
20144;SDS011;10233;50.814;6.590;2023-04-06T04:23:52;12.73;;;6.45;;
20144;SDS011;10233;50.814;6.590;2023-04-06T04:24:56;13.98;;;6.45;;
20144;SDS011;10233;50.814;6.590;2023-04-06T04:25:57;15.90;;;6.28;;
20144;SDS011;10233;50.814;6.590;2023-04-06T04:26:57;16.58;;;5.97;;
20144;SDS011;10233;50.814;6.590;2023-04-06T04:27:59;12.18;;;5.93;;
20144;SDS011;10233;50.814;6.590;2023-04-06T04:28:59;16.90;;;6.63;;
20144;SDS011;10233;50.814;6.590;2023-04-06T04:30:00;12.40;;;6.30;;
20144;SDS011;10233;50.814;6.590;2023-04-06T04:31:01;14.13;;;6.38;;
20144;SDS011;10233;50.814;6.590;2023-04-06T04:32:05;9.63;;;5.47;;
20144;SDS011;10233;50.814;6.590;2023-04-06T04:33:07;13.32;;;6.35;;
20144;SDS011;10233;50.814;6.590;2023-04-06T04:34:07;11.30;;;5.70;;
20144;SDS011;10233;50.814;6.590;2023-04-06T04:35:12;14.07;;;6.70;;
20144;SDS011;10233;50.814;6.590;2023-04-06T04:36:15;14.93;;;6.30;;
20144;SDS011;10233;50.814;6.590;2023-04-06T04:37:17;9.07;;;5.43;;
20144;SDS011;10233;50.814;6.590;2023-04-06T04:38:26;12.00;;;6.30;;
20144;SDS011;10233;50.814;6.590;2023-04-06T04:39:29;11.73;;;6.00;;
20144;SDS011;10233;50.814;6.590;2023-04-06T04:40:38;13.40;;;6.00;;
20144;SDS011;10233;50.814;6.590;2023-04-06T04:41:42;14.15;;;6.55;;
20144;SDS011;10233;50.814;6.590;2023-04-06T04:42:45;46.10;;;12.25;;
20144;SDS011;10233;50.814;6.590;2023-04-06T04:43:53;19.95;;;7.13;;
20144;SDS011;10233;50.814;6.590;2023-04-06T04:44:56;15.68;;;6.75;;
20144;SDS011;10233;50.814;6.590;2023-04-06T04:46:09;14.25;;;6.35;;
20144;SDS011;10233;50.814;6.590;2023-04-06T04:47:13;31.63;;;9.23;;
20144;SDS011;10233;50.814;6.590;2023-04-06T04:48:18;12.50;;;5.95;;
20144;SDS011;10233;50.814;6.590;2023-04-06T04:49:25;13.45;;;6.75;;
20144;SDS011;10233;50.814;6.590;2023-04-06T04:50:26;15.25;;;6.38;;
20144;SDS011;10233;50.814;6.590;2023-04-06T04:51:30;11.50;;;6.38;;
20144;SDS011;10233;50.814;6.590;2023-04-06T04:52:43;12.63;;;6.10;;
20144;SDS011;10233;50.814;6.590;2023-04-06T04:53:48;15.23;;;6.73;;
20144;SDS011;10233;50.814;6.590;2023-04-06T04:54:54;13.82;;;6.03;;
20144;SDS011;10233;50.814;6.590;2023-04-06T04:56:00;12.73;;;6.13;;
20144;SDS011;10233;50.814;6.590;2023-04-06T04:57:01;14.27;;;6.38;;
20144;SDS011;10233;50.814;6.590;2023-04-06T04:58:13;22.80;;;8.63;;
20144;SDS011;10233;50.814;6.590;2023-04-06T04:59:30;37.33;;;10.48;;
20144;SDS011;10233;50.814;6.590;2023-04-06T05:00:36;17.40;;;7.10;;
20144;SDS011;10233;50.814;6.590;2023-04-06T05:01:37;13.82;;;6.35;;
20144;SDS011;10233;50.814;6.590;2023-04-06T05:02:38;12.13;;;6.07;;
20144;SDS011;10233;50.814;6.590;2023-04-06T05:03:55;11.77;;;6.15;;
20144;SDS011;10233;50.814;6.590;2023-04-06T05:04:59;14.10;;;6.03;;
20144;SDS011;10233;50.814;6.590;2023-04-06T05:06:01;11.52;;;5.80;;
20144;SDS011;10233;50.814;6.590;2023-04-06T05:07:07;12.43;;;6.00;;
20144;SDS011;10233;50.814;6.590;2023-04-06T05:08:10;27.13;;;8.52;;
20144;SDS011;10233;50.814;6.590;2023-04-06T05:09:20;14.65;;;6.30;;
20144;SDS011;10233;50.814;6.590;2023-04-06T05:10:20;13.35;;;6.38;;
20144;SDS011;10233;50.814;6.590;2023-04-06T05:11:27;19.27;;;6.72;;
20144;SDS011;10233;50.814;6.590;2023-04-06T05:12:33;14.15;;;6.43;;
20144;SDS011;10233;50.814;6.590;2023-04-06T05:13:39;13.57;;;6.20;;
20144;SDS011;10233;50.814;6.590;2023-04-06T05:14:48;13.98;;;6.43;;
20144;SDS011;10233;50.814;6.590;2023-04-06T05:15:56;19.33;;;7.05;;
20144;SDS011;10233;50.814;6.590;2023-04-06T05:17:03;14.70;;;6.18;;
20144;SDS011;10233;50.814;6.590;2023-04-06T05:18:04;18.08;;;6.90;;
20144;SDS011;10233;50.814;6.590;2023-04-06T05:19:08;13.98;;;6.22;;
20144;SDS011;10233;50.814;6.590;2023-04-06T05:20:16;15.15;;;6.00;;
20144;SDS011;10233;50.814;6.590;2023-04-06T05:21:21;14.15;;;6.07;;
20144;SDS011;10233;50.814;6.590;2023-04-06T05:22:29;17.52;;;6.82;;
20144;SDS011;10233;50.814;6.590;2023-04-06T05:23:38;17.63;;;6.38;;
20144;SDS011;10233;50.814;6.590;2023-04-06T05:24:39;14.63;;;6.07;;
20144;SDS011;10233;50.814;6.590;2023-04-06T05:25:42;11.35;;;5.75;;
20144;SDS011;10233;50.814;6.590;2023-04-06T05:26:53;23.57;;;7.30;;
20144;SDS011;10233;50.814;6.590;2023-04-06T05:27:57;14.95;;;6.97;;
20144;SDS011;10233;50.814;6.590;2023-04-06T05:29:10;13.00;;;6.00;;
20144;SDS011;10233;50.814;6.590;2023-04-06T05:30:12;12.55;;;6.15;;
20144;SDS011;10233;50.814;6.590;2023-04-06T05:31:17;17.75;;;6.75;;
20144;SDS011;10233;50.814;6.590;2023-04-06T05:32:22;13.15;;;6.28;;
20144;SDS011;10233;50.814;6.590;2023-04-06T05:33:25;11.77;;;5.70;;
20144;SDS011;10233;50.814;6.590;2023-04-06T05:34:49;10.93;;;5.95;;
20144;SDS011;10233;50.814;6.590;2023-04-06T05:35:50;11.57;;;6.32;;
20144;SDS011;10233;50.814;6.590;2023-04-06T05:36:51;18.83;;;7.03;;
20144;SDS011;10233;50.814;6.590;2023-04-06T05:37:55;11.05;;;5.50;;
20144;SDS011;10233;50.814;6.590;2023-04-06T05:38:59;13.20;;;6.35;;
20144;SDS011;10233;50.814;6.590;2023-04-06T05:40:08;11.23;;;5.93;;
20144;SDS011;10233;50.814;6.590;2023-04-06T05:41:10;10.90;;;5.47;;
20144;SDS011;10233;50.814;6.590;2023-04-06T05:42:14;11.80;;;6.13;;
20144;SDS011;10233;50.814;6.590;2023-04-06T05:43:26;12.63;;;6.10;;
20144;SDS011;10233;50.814;6.590;2023-04-06T05:44:29;11.35;;;6.00;;
20144;SDS011;10233;50.814;6.590;2023-04-06T05:45:39;12.13;;;6.03;;
20144;SDS011;10233;50.814;6.590;2023-04-06T05:46:41;11.85;;;6.32;;
20144;SDS011;10233;50.814;6.590;2023-04-06T05:47:45;14.02;;;6.40;;
20144;SDS011;10233;50.814;6.590;2023-04-06T05:48:55;12.68;;;6.18;;
20144;SDS011;10233;50.814;6.590;2023-04-06T05:49:59;11.95;;;5.82;;
20144;SDS011;10233;50.814;6.590;2023-04-06T05:51:06;10.10;;;5.57;;
20144;SDS011;10233;50.814;6.590;2023-04-06T05:52:16;11.93;;;6.30;;
20144;SDS011;10233;50.814;6.590;2023-04-06T05:53:20;12.25;;;6.07;;
20144;SDS011;10233;50.814;6.590;2023-04-06T05:54:26;10.65;;;5.85;;
20144;SDS011;10233;50.814;6.590;2023-04-06T05:55:33;11.40;;;6.28;;
20144;SDS011;10233;50.814;6.590;2023-04-06T05:56:53;12.90;;;6.35;;
20144;SDS011;10233;50.814;6.590;2023-04-06T05:57:57;13.57;;;6.43;;
20144;SDS011;10233;50.814;6.590;2023-04-06T05:58:58;11.15;;;5.88;;
20144;SDS011;10233;50.814;6.590;2023-04-06T06:00:02;13.73;;;5.85;;
20144;SDS011;10233;50.814;6.590;2023-04-06T06:01:12;12.52;;;6.32;;
20144;SDS011;10233;50.814;6.590;2023-04-06T06:02:18;12.63;;;6.20;;
20144;SDS011;10233;50.814;6.590;2023-04-06T06:03:21;13.65;;;6.15;;
20144;SDS011;10233;50.814;6.590;2023-04-06T06:04:27;11.27;;;6.47;;
20144;SDS011;10233;50.814;6.590;2023-04-06T06:05:28;14.07;;;7.07;;
20144;SDS011;10233;50.814;6.590;2023-04-06T06:06:33;14.07;;;6.10;;
20144;SDS011;10233;50.814;6.590;2023-04-06T06:07:52;13.85;;;6.30;;
20144;SDS011;10233;50.814;6.590;2023-04-06T06:08:54;13.77;;;6.40;;
20144;SDS011;10233;50.814;6.590;2023-04-06T06:09:56;11.98;;;6.03;;
20144;SDS011;10233;50.814;6.590;2023-04-06T06:11:03;12.38;;;6.50;;
20144;SDS011;10233;50.814;6.590;2023-04-06T06:12:04;13.27;;;5.85;;
20144;SDS011;10233;50.814;6.590;2023-04-06T06:13:05;11.27;;;6.57;;
20144;SDS011;10233;50.814;6.590;2023-04-06T06:14:06;13.40;;;6.38;;
20144;SDS011;10233;50.814;6.590;2023-04-06T06:15:11;12.48;;;5.65;;
20144;SDS011;10233;50.814;6.590;2023-04-06T06:16:17;14.70;;;6.60;;
20144;SDS011;10233;50.814;6.590;2023-04-06T06:17:21;11.80;;;6.55;;
20144;SDS011;10233;50.814;6.590;2023-04-06T06:18:22;13.40;;;6.90;;